Time;durP1;ratioP1;P1;durP2;ratioP2;P2;SDS_P1;SDS_P2;PMS_P1;PMS_P2;Temp;Humidity;BMP_temperature;BMP_pressure;BME280_temperature;BME280_humidity;BME280_pressure;Samples;Min_cycle;Max_cycle;Signal;HPM_P1;HPM_P2
2021/01/17 00:01:43;;;;;;;14.63;8.20;;;;;;;-3.79;76.71;100270.03;5016406;28;20046;-68
2021/01/17 00:04:09;;;;;;;12.90;6.40;;;;;;;-3.80;77.04;100262.22;5016460;28;20049;-68
2021/01/17 00:06:34;;;;;;;15.75;7.78;;;;;;;-4.12;76.90;100226.69;4998323;28;20038;-68
2021/01/17 00:09:00;;;;;;;17.08;8.25;;;;;;;-4.08;76.41;100223.19;5016064;28;20505;-68
2021/01/17 00:11:25;;;;;;;15.43;7.15;;;;;;;-3.90;76.40;100250.09;5015630;28;20485;-68
2021/01/17 00:13:51;;;;;;;17.13;8.40;;;;;;;-3.82;76.78;100264.84;4998485;28;20112;-68
2021/01/17 00:16:16;;;;;;;14.00;6.85;;;;;;;-3.79;76.75;100277.00;4998672;28;20030;-68
2021/01/17 00:18:42;;;;;;;8.52;4.28;;;;;;;-3.89;77.09;100262.25;5016029;28;20371;-68
2021/01/17 00:21:08;;;;;;;12.20;5.93;;;;;;;-3.80;77.10;100265.72;5015928;28;20034;-67
2021/01/17 00:23:35;;;;;;;12.80;6.32;;;;;;;-3.86;77.45;100251.81;5015544;28;20030;-68
2021/01/17 00:26:01;;;;;;;15.77;7.07;;;;;;;-4.10;77.08;100213.66;5015806;28;20070;-68
2021/01/17 00:28:26;;;;;;;16.25;8.13;;;;;;;-3.85;77.55;100256.19;5015437;28;20440;-68
2021/01/17 00:30:52;;;;;;;10.00;5.00;;;;;;;-3.97;77.00;100227.50;5015772;28;20030;-69
2021/01/17 00:33:17;;;;;;;14.95;7.38;;;;;;;-4.15;76.76;100179.81;5015865;28;20379;-69
2021/01/17 00:35:43;;;;;;;14.52;7.05;;;;;;;-3.76;76.77;100238.78;4997281;28;20050;-69
2021/01/17 00:38:08;;;;;;;15.80;7.70;;;;;;;-3.66;76.63;100239.63;4980935;28;20536;-68
2021/01/17 00:40:33;;;;;;;17.27;8.88;;;;;;;-4.00;76.61;100189.31;4981142;28;20579;-68
2021/01/17 00:42:59;;;;;;;16.73;6.80;;;;;;;-3.69;76.25;100226.56;4982081;28;20045;-69
2021/01/17 00:45:27;;;;;;;19.25;8.05;;;;;;;-3.64;75.76;100253.50;4997635;28;20088;-69
2021/01/17 00:47:53;;;;;;;17.27;8.45;;;;;;;-3.68;76.24;100243.09;5015452;28;20032;-67
2021/01/17 00:50:21;;;;;;;13.95;7.28;;;;;;;-3.69;75.78;100231.78;4997874;28;20053;-74
2021/01/17 00:52:52;;;;;;;15.02;7.25;;;;;;;-3.56;75.96;100243.94;5015412;28;20030;-68
2021/01/17 00:55:17;;;;;;;14.73;8.07;;;;;;;-3.59;75.97;100232.63;5015408;28;20030;-68
2021/01/17 00:57:43;;;;;;;16.15;7.07;;;;;;;-3.57;75.79;100246.53;4997692;28;20040;-68
2021/01/17 01:00:10;;;;;;;17.27;7.63;;;;;;;-3.59;75.38;100204.81;5015088;28;20042;-68
2021/01/17 01:02:40;;;;;;;14.80;7.47;;;;;;;-3.56;75.54;100225.69;5015098;28;20364;-67
2021/01/17 01:05:07;;;;;;;15.82;7.82;;;;;;;-3.63;75.47;100216.16;5014909;28;20107;-68
2021/01/17 01:07:33;;;;;;;18.50;8.27;;;;;;;-3.84;75.96;100169.28;5014486;28;20030;-68
2021/01/17 01:09:58;;;;;;;16.83;7.85;;;;;;;-3.63;76.03;100221.34;4997629;28;20100;-68
2021/01/17 01:12:24;;;;;;;16.75;7.60;;;;;;;-3.64;76.08;100216.16;5014521;28;20077;-67
2021/01/17 01:14:49;;;;;;;16.58;7.97;;;;;;;-3.66;76.02;100200.53;4997298;28;20061;-70
2021/01/17 01:17:15;;;;;;;15.25;7.78;;;;;;;-3.54;75.97;100220.47;5014833;28;20120;-70
2021/01/17 01:19:41;;;;;;;17.90;8.15;;;;;;;-3.74;75.34;100181.44;4996972;28;20033;-69
2021/01/17 01:22:06;;;;;;;12.80;5.40;;;;;;;-3.60;75.86;100210.91;5014703;28;20041;-69
2021/01/17 01:24:32;;;;;;;15.00;7.38;;;;;;;-3.70;76.08;100208.34;4997111;28;20088;-68
2021/01/17 01:26:57;;;;;;;9.90;4.88;;;;;;;-3.77;76.20;100192.69;5014723;28;20068;-69
2021/01/17 01:29:23;;;;;;;15.90;8.05;;;;;;;-3.64;76.12;100201.38;5014311;28;20072;-77
2021/01/17 01:31:49;;;;;;;15.43;7.55;;;;;;;-3.65;76.32;100202.25;5014562;28;20398;-69
2021/01/17 01:34:15;;;;;;;17.30;8.23;;;;;;;-3.54;75.81;100191.78;5014147;28;20058;-69
2021/01/17 01:36:43;;;;;;;16.13;7.90;;;;;;;-3.63;75.85;100199.63;5014043;28;20060;-69
2021/01/17 01:39:10;;;;;;;16.45;8.32;;;;;;;-3.69;75.88;100174.44;5014250;28;20579;-69
2021/01/17 01:41:40;;;;;;;14.77;7.45;;;;;;;-3.72;76.13;100190.09;5013952;28;20112;-68
2021/01/17 01:44:08;;;;;;;15.40;7.50;;;;;;;-3.73;76.25;100193.59;5014311;28;20030;-69
2021/01/17 01:46:37;;;;;;;14.30;7.60;;;;;;;-3.72;76.24;100199.66;4980348;28;20394;-69
2021/01/17 01:49:03;;;;;;;16.75;8.35;;;;;;;-3.66;77.18;100195.31;5014222;28;20041;-68
2021/01/17 01:51:29;;;;;;;17.98;8.95;;;;;;;-3.71;76.82;100178.78;5013488;28;20030;-68
2021/01/17 01:53:56;;;;;;;17.52;8.55;;;;;;;-3.71;76.52;100163.16;4996733;28;20371;-67
2021/01/17 01:56:22;;;;;;;14.82;5.50;;;;;;;-3.70;76.67;100171.84;5014088;28;20033;-68
2021/01/17 01:58:48;;;;;;;16.50;7.93;;;;;;;-4.01;76.83;100135.47;4980162;28;20030;-68
2021/01/17 02:01:13;;;;;;;17.67;8.35;;;;;;;-3.75;76.84;100164.06;5014177;28;20395;-70
2021/01/17 02:03:44;;;;;;;15.48;7.63;;;;;;;-3.69;76.43;100179.66;4995858;28;20134;-70
2021/01/17 02:06:13;;;;;;;17.15;7.75;;;;;;;-3.73;76.76;100175.34;4996815;28;20037;-69
2021/01/17 02:08:57;;;;;;;19.50;9.40;;;;;;;-3.68;76.37;100176.16;4996091;28;20038;-69
2021/01/17 02:11:41;;;;;;;17.60;7.43;;;;;;;-3.71;76.60;100162.28;5013945;28;20033;-69
2021/01/17 02:14:21;;;;;;;16.73;7.78;;;;;;;-3.77;76.83;100170.97;4996010;28;20072;-70
2021/01/17 02:16:48;;;;;;;13.25;6.32;;;;;;;-3.71;76.50;100159.69;4996039;28;20390;-70
2021/01/17 02:19:19;;;;;;;19.13;8.70;;;;;;;-3.79;76.00;100137.13;4996398;28;20030;-68
2021/01/17 02:21:55;;;;;;;18.08;8.57;;;;;;;-3.68;76.45;100163.13;5013335;28;20049;-70
2021/01/17 02:24:30;;;;;;;19.02;9.40;;;;;;;-3.67;76.49;100157.03;4996029;28;20037;-70
2021/01/17 02:26:56;;;;;;;18.20;8.45;;;;;;;-3.65;76.20;100160.53;4996222;28;20069;-70
2021/01/17 02:29:22;;;;;;;19.60;9.52;;;;;;;-3.87;75.92;100120.63;4996175;28;20041;-70
2021/01/17 02:31:49;;;;;;;11.20;4.88;;;;;;;-3.71;76.10;100154.47;4995852;28;20534;-69
2021/01/17 02:34:15;;;;;;;18.50;8.07;;;;;;;-3.86;76.77;100144.94;5013425;28;20042;-70
2021/01/17 02:36:44;;;;;;;21.73;9.02;;;;;;;-3.76;76.37;100152.75;4979638;28;20061;-70
2021/01/17 02:39:31;;;;;;;19.90;8.88;;;;;;;-3.81;76.79;100145.81;5013543;28;20046;-70
2021/01/17 02:41:59;;;;;;;17.45;9.02;;;;;;;-3.72;77.04;100151.00;5013548;28;20037;-70
2021/01/17 02:44:29;;;;;;;20.90;9.63;;;;;;;-3.94;77.03;100116.34;5013346;28;20084;-70
2021/01/17 02:46:55;;;;;;;18.63;8.23;;;;;;;-3.68;77.00;100150.09;5013433;28;20449;-69
2021/01/17 02:49:21;;;;;;;16.40;8.30;;;;;;;-3.72;77.06;100140.56;5013360;28;20117;-70
2021/01/17 02:51:49;;;;;;;17.63;7.10;;;;;;;-4.09;77.33;100085.97;5013391;28;20026;-70
2021/01/17 02:54:31;;;;;;;16.02;6.75;;;;;;;-3.76;77.20;100131.03;5013157;28;20060;-70
2021/01/17 02:57:20;;;;;;;17.67;8.95;;;;;;;-3.68;77.76;100133.59;5013855;28;20034;-70
2021/01/17 03:00:09;;;;;;;17.48;8.75;;;;;;;-3.60;77.15;100130.09;5013462;28;20030;-70
2021/01/17 03:02:41;;;;;;;14.15;7.03;;;;;;;-3.73;77.78;100124.94;4995153;28;20037;-68
2021/01/17 03:05:13;;;;;;;19.33;8.33;;;;;;;-3.69;77.46;100132.72;5013362;28;20180;-69
2021/01/17 03:07:39;;;;;;;19.73;8.77;;;;;;;-3.73;78.43;100114.53;4995527;28;20173;-70
2021/01/17 03:10:09;;;;;;;19.98;8.40;;;;;;;-3.82;78.13;100110.22;4980119;28;20391;-70
2021/01/17 03:12:36;;;;;;;16.88;7.93;;;;;;;-3.72;77.69;100106.69;5012913;28;20508;-70
2021/01/17 03:15:05;;;;;;;15.98;6.43;;;;;;;-3.67;77.69;100110.13;5013613;28;20037;-70
2021/01/17 03:17:31;;;;;;;17.23;8.05;;;;;;;-3.78;78.26;100119.72;5012659;28;20036;-72
2021/01/17 03:19:57;;;;;;;20.17;9.43;;;;;;;-4.14;78.99;100061.72;4995731;28;20390;-69
2021/01/17 03:22:22;;;;;;;21.10;9.88;;;;;;;-4.01;78.84;100072.94;5013037;28;20034;-69
2021/01/17 03:24:48;;;;;;;20.60;9.40;;;;;;;-3.66;78.81;100111.88;5012507;28;20029;-72
2021/01/17 03:27:13;;;;;;;20.67;8.93;;;;;;;-3.88;79.30;100108.47;4995400;28;20058;-69
2021/01/17 03:29:39;;;;;;;13.90;6.55;;;;;;;-3.92;79.40;100103.31;4995075;28;20042;-69
2021/01/17 03:32:04;;;;;;;18.38;8.85;;;;;;;-3.87;79.08;100112.81;4995514;28;20040;-70
2021/01/17 03:34:31;;;;;;;22.58;10.63;;;;;;;-4.34;80.02;100037.47;5012787;28;20513;-75
2021/01/17 03:36:56;;;;;;;24.45;11.10;;;;;;;-4.18;79.78;100091.22;5012798;28;20037;-69
2021/01/17 03:39:21;;;;;;;10.00;5.65;;;;;;;-4.18;79.75;100078.19;5013032;28;20042;-69
2021/01/17 03:41:47;;;;;;;21.92;10.27;;;;;;;-4.02;79.66;100102.47;4978511;28;20035;-69
2021/01/17 03:44:13;;;;;;;23.42;10.73;;;;;;;-4.22;80.20;100084.31;4995350;28;20034;-69
2021/01/17 03:46:38;;;;;;;22.05;11.15;;;;;;;-4.24;79.85;100086.06;4995080;28;20211;-69
2021/01/17 03:49:03;;;;;;;20.77;8.07;;;;;;;-4.21;80.26;100096.44;4979828;28;20435;-69
2021/01/17 03:51:29;;;;;;;20.60;10.43;;;;;;;-4.13;79.21;100083.41;5013318;28;20033;-69
2021/01/17 03:53:54;;;;;;;24.35;10.55;;;;;;;-4.36;79.63;100049.59;4995162;28;20045;-69
2021/01/17 03:56:20;;;;;;;23.70;10.85;;;;;;;-4.37;79.87;100045.28;5012582;28;20486;-69
2021/01/17 03:58:46;;;;;;;20.38;10.00;;;;;;;-4.18;79.75;100078.19;5012497;28;20030;-69
2021/01/17 04:01:11;;;;;;;24.75;11.35;;;;;;;-4.43;79.89;100032.28;5012977;28;20041;-69
2021/01/17 04:03:38;;;;;;;19.92;10.20;;;;;;;-4.27;79.33;100044.38;5012124;28;20045;-68
2021/01/17 04:06:04;;;;;;;24.45;10.95;;;;;;;-4.04;78.33;100083.38;5013128;28;20390;-68
2021/01/17 04:08:29;;;;;;;20.25;10.32;;;;;;;-4.22;78.81;100045.22;4978992;28;20119;-68
2021/01/17 04:10:55;;;;;;;20.27;7.32;;;;;;;-3.88;76.76;100090.25;5012079;28;20457;-67
2021/01/17 04:13:20;;;;;;;22.65;10.98;;;;;;;-3.88;76.74;100076.34;4964329;28;20061;-67
2021/01/17 04:15:46;;;;;;;18.80;9.20;;;;;;;-4.02;77.84;100086.84;4982071;28;20528;-67
2021/01/17 04:18:11;;;;;;;17.75;8.45;;;;;;;-3.96;77.59;100085.94;4998482;28;20133;-68
2021/01/17 04:20:37;;;;;;;19.42;9.73;;;;;;;-3.96;77.79;100086.78;5015475;28;20481;-68
2021/01/17 04:23:04;;;;;;;18.85;8.52;;;;;;;-4.20;77.66;100059.13;5015774;28;20049;-68
2021/01/17 04:25:31;;;;;;;19.80;9.23;;;;;;;-4.01;78.34;100092.91;4998026;28;20041;-67
2021/01/17 04:27:57;;;;;;;20.48;10.45;;;;;;;-3.99;77.99;100081.59;4997847;28;20096;-69
2021/01/17 04:30:26;;;;;;;22.30;10.05;;;;;;;-3.89;77.05;100085.03;4998149;28;20371;-68
2021/01/17 04:32:52;;;;;;;21.42;9.00;;;;;;;-3.95;77.25;100074.66;5015348;28;20041;-68
2021/01/17 04:35:18;;;;;;;22.05;10.88;;;;;;;-3.77;76.97;100100.59;4997882;28;20077;-68
2021/01/17 04:37:43;;;;;;;18.15;9.30;;;;;;;-3.80;76.80;100103.25;4981502;28;20048;-68
2021/01/17 04:40:09;;;;;;;11.57;5.53;;;;;;;-3.85;77.63;100094.59;4981753;28;20509;-70
2021/01/17 04:42:36;;;;;;;11.90;5.57;;;;;;;-3.90;78.17;100096.34;4997817;28;20030;-74
2021/01/17 04:45:08;;;;;;;17.50;7.82;;;;;;;-3.89;77.94;100092.84;5015258;28;20479;-68
2021/01/17 04:47:35;;;;;;;14.80;6.40;;;;;;;-4.19;78.48;100053.03;4998138;28;20371;-68
2021/01/17 04:50:07;;;;;;;21.23;9.77;;;;;;;-3.86;78.23;100103.25;5015255;28;20036;-69
2021/01/17 04:53:06;;;;;;;21.02;10.15;;;;;;;-3.88;78.62;100100.66;5015172;28;20026;-68
2021/01/17 04:55:35;;;;;;;18.88;8.85;;;;;;;-3.90;79.10;100101.56;4955828;28;20049;-68
2021/01/17 04:58:17;;;;;;;22.50;9.98;;;;;;;-4.01;78.93;100067.72;4997528;28;20096;-69
2021/01/17 05:00:55;;;;;;;18.08;9.13;;;;;;;-3.90;79.63;100106.75;5014745;28;20475;-68
2021/01/17 05:03:26;;;;;;;19.60;9.52;;;;;;;-3.84;78.83;100096.31;5015175;28;20037;-69
2021/01/17 05:06:13;;;;;;;18.17;7.88;;;;;;;-3.88;79.93;100097.19;5014951;28;20033;-68
2021/01/17 05:08:45;;;;;;;21.58;10.38;;;;;;;-3.97;80.64;100094.63;5014769;28;20029;-69
2021/01/17 05:11:34;;;;;;;19.83;9.32;;;;;;;-3.94;80.46;100094.63;5014864;28;20037;-70
2021/01/17 05:14:21;;;;;;;19.17;9.85;;;;;;;-3.99;80.57;100088.56;5014674;28;20045;-68
2021/01/17 05:16:47;;;;;;;24.00;11.05;;;;;;;-3.96;80.82;100096.34;4997977;28;20428;-69
2021/01/17 05:19:17;;;;;;;22.42;10.68;;;;;;;-4.16;80.60;100046.94;4997314;28;20061;-68
2021/01/17 05:21:52;;;;;;;22.27;9.95;;;;;;;-3.85;79.94;100090.25;5014582;28;20057;-69
2021/01/17 05:24:19;;;;;;;18.83;8.73;;;;;;;-4.14;80.07;100043.47;5014153;28;20026;-66
2021/01/17 05:26:54;;;;;;;19.48;9.18;;;;;;;-3.92;78.68;100078.09;5014177;28;20038;-67
2021/01/17 05:29:24;;;;;;;19.23;9.57;;;;;;;-3.82;79.30;100089.34;5014675;28;20057;-68
2021/01/17 05:31:55;;;;;;;19.85;9.32;;;;;;;-3.77;79.05;100088.44;5014276;28;20048;-68
2021/01/17 05:34:20;;;;;;;21.42;9.43;;;;;;;-3.87;79.55;100088.50;5014197;28;20054;-68
2021/01/17 05:36:46;;;;;;;11.30;4.90;;;;;;;-4.20;80.38;100035.66;5014348;28;20039;-71
2021/01/17 05:39:12;;;;;;;17.63;8.35;;;;;;;-4.00;80.56;100082.47;5014724;28;20385;-70
2021/01/17 05:41:38;;;;;;;20.42;9.77;;;;;;;-4.22;80.17;100029.59;4996935;28;20540;-71
2021/01/17 05:44:04;;;;;;;17.52;8.40;;;;;;;-4.03;80.98;100065.13;5014058;28;20105;-70
2021/01/17 05:46:30;;;;;;;19.45;10.02;;;;;;;-3.96;81.13;100076.38;5014097;28;20169;-71
2021/01/17 05:49:25;;;;;;;18.88;8.63;;;;;;;-3.86;80.11;100075.50;5014210;28;20042;-70
2021/01/17 05:51:50;;;;;;;21.27;9.65;;;;;;;-3.97;79.57;100073.78;4997110;28;20046;-70
2021/01/17 05:54:16;;;;;;;15.50;7.55;;;;;;;-4.07;80.20;100054.72;5014253;28;20041;-71
2021/01/17 05:56:42;;;;;;;19.88;9.30;;;;;;;-4.06;80.75;100075.53;4996514;28;20040;-71
2021/01/17 05:59:08;;;;;;;19.48;10.27;;;;;;;-3.96;80.72;100086.78;4996573;28;20053;-70
2021/01/17 06:01:34;;;;;;;24.58;11.48;;;;;;;-3.92;80.27;100088.53;4980791;28;20034;-71
2021/01/17 06:04:09;;;;;;;21.70;10.27;;;;;;;-3.92;79.89;100074.63;5013595;28;21027;-70
2021/01/17 06:06:35;;;;;;;20.00;9.45;;;;;;;-3.77;80.39;100104.09;5014247;28;20391;-70
2021/01/17 06:09:01;;;;;;;23.95;10.85;;;;;;;-3.79;79.97;100097.16;4996039;28;20857;-69
2021/01/17 06:11:28;;;;;;;16.92;7.78;;;;;;;-4.11;80.13;100040.84;4996270;28;20038;-70
2021/01/17 06:13:53;;;;;;;17.30;9.02;;;;;;;-3.86;80.72;100101.56;4995810;28;20088;-70
2021/01/17 06:16:34;;;;;;;20.55;10.25;;;;;;;-3.91;81.26;100099.81;5014065;28;20034;-69
2021/01/17 06:19:02;;;;;;;20.70;10.23;;;;;;;-4.08;80.88;100063.41;5013513;28;20116;-69
2021/01/17 06:21:29;;;;;;;22.88;9.68;;;;;;;-3.77;80.06;100108.44;5013932;28;20025;-68
2021/01/17 06:23:59;;;;;;;23.02;10.45;;;;;;;-3.75;80.27;100112.78;4995729;28;20030;-69
2021/01/17 06:26:30;;;;;;;19.23;8.77;;;;;;;-3.79;80.73;100118.88;4996880;28;20048;-69
2021/01/17 06:28:57;;;;;;;21.60;10.60;;;;;;;-3.89;81.48;100114.56;5013719;28;20025;-69
2021/01/17 06:31:28;;;;;;;20.52;10.10;;;;;;;-3.88;81.57;100121.50;4996220;28;20042;-70
2021/01/17 06:34:14;;;;;;;23.70;10.68;;;;;;;-3.86;81.89;100124.09;5013132;28;20054;-70
2021/01/17 06:36:49;;;;;;;22.00;10.25;;;;;;;-3.89;82.23;100129.34;5012781;28;20038;-70
2021/01/17 06:39:23;;;;;;;24.00;9.93;;;;;;;-4.08;81.80;100095.53;5013404;28;20037;-70
2021/01/17 06:41:54;;;;;;;19.77;9.38;;;;;;;-4.11;82.26;100081.66;5013547;28;20038;-69
2021/01/17 06:44:35;;;;;;;22.30;9.77;;;;;;;-3.87;81.27;100130.19;5013706;28;20505;-71
2021/01/17 06:47:01;;;;;;;17.75;9.65;;;;;;;-3.77;81.65;100134.50;4995984;28;20040;-70
2021/01/17 06:49:29;;;;;;;20.20;9.70;;;;;;;-3.83;82.09;100129.31;5013448;28;20034;-68
2021/01/17 06:51:56;;;;;;;19.77;9.07;;;;;;;-3.75;80.98;100132.78;5013177;28;20021;-70
2021/01/17 06:54:30;;;;;;;21.50;10.18;;;;;;;-3.81;81.66;100138.00;4996623;28;20030;-70
2021/01/17 06:56:59;;;;;;;18.83;9.27;;;;;;;-4.04;81.78;100085.97;4995946;28;20033;-70
2021/01/17 06:59:34;;;;;;;11.63;5.47;;;;;;;-3.84;81.53;100130.22;5013864;28;20095;-70
2021/01/17 07:02:12;;;;;;;20.40;9.93;;;;;;;-3.90;80.97;100140.63;5018648;28;20082;-69
2021/01/17 07:04:55;;;;;;;22.40;11.40;;;;;;;-3.80;81.02;100139.72;5017812;28;20040;-70
2021/01/17 07:07:26;;;;;;;17.92;8.43;;;;;;;-3.88;81.88;100146.72;5015830;28;20439;-69
2021/01/17 07:10:04;;;;;;;21.48;11.18;;;;;;;-4.28;81.10;100073.91;5012838;28;20394;-69
2021/01/17 07:12:57;;;;;;;17.27;8.02;;;;;;;-3.89;80.84;100135.41;4995595;28;20121;-69
2021/01/17 07:15:28;;;;;;;21.38;10.20;;;;;;;-4.10;80.95;100109.44;4995583;28;20029;-69
2021/01/17 07:18:14;;;;;;;20.60;8.98;;;;;;;-4.16;80.80;100094.69;5012940;28;20048;-68
2021/01/17 07:20:47;;;;;;;21.67;10.40;;;;;;;-3.73;81.12;100146.66;5013284;28;20058;-68
2021/01/17 07:23:15;;;;;;;26.17;11.65;;;;;;;-3.71;80.56;100152.72;5013329;28;20037;-69
2021/01/17 07:25:43;;;;;;;19.98;9.73;;;;;;;-3.62;79.82;100155.31;5012698;28;20030;-69
2021/01/17 07:28:13;;;;;;;23.27;10.55;;;;;;;-3.77;80.17;100130.16;5012557;28;20046;-69
2021/01/17 07:30:38;;;;;;;20.98;10.38;;;;;;;-3.56;79.63;100150.06;5012841;28;20046;-69
2021/01/17 07:33:06;;;;;;;18.20;8.77;;;;;;;-4.00;80.56;100110.28;5012950;28;20041;-69
2021/01/17 07:35:40;;;;;;;23.77;10.90;;;;;;;-3.72;80.39;100155.34;5012517;28;20081;-69
2021/01/17 07:38:23;;;;;;;21.80;10.52;;;;;;;-3.60;79.91;100157.91;5012968;28;20154;-69
2021/01/17 07:40:59;;;;;;;21.90;10.32;;;;;;;-3.66;79.53;100148.38;5012580;28;20113;-74
2021/01/17 07:43:31;;;;;;;18.70;7.55;;;;;;;-3.61;79.07;100156.16;4995040;28;20542;-68
2021/01/17 07:46:00;;;;;;;21.95;10.52;;;;;;;-3.51;79.24;100160.47;4994826;28;20136;-71
2021/01/17 07:48:26;;;;;;;23.60;11.48;;;;;;;-3.56;79.37;100157.03;5014410;28;20034;-71
2021/01/17 07:50:57;;;;;;;23.13;11.60;;;;;;;-3.78;79.87;100099.75;5016133;28;20030;-71
2021/01/17 07:53:38;;;;;;;20.25;9.95;;;;;;;-3.49;79.23;100150.88;4999351;28;20121;-71
2021/01/17 07:56:22;;;;;;;19.00;9.25;;;;;;;-3.53;78.97;100155.25;5016064;28;20088;-69
2021/01/17 07:58:50;;;;;;;13.48;6.55;;;;;;;-3.46;78.54;100156.97;4999243;28;20383;-69
2021/01/17 08:01:45;;;;;;;18.50;8.68;;;;;;;-3.49;79.16;100161.31;5016558;28;20053;-68
2021/01/17 08:04:12;;;;;;;16.70;7.95;;;;;;;-3.54;79.35;100156.13;4999292;28;20407;-70
2021/01/17 08:06:48;;;;;;;16.80;7.93;;;;;;;-3.49;79.09;100151.75;5016069;28;20028;-68
2021/01/17 08:09:15;;;;;;;17.98;8.57;;;;;;;-3.53;78.81;100139.63;5016151;28;20383;-68
2021/01/17 08:11:51;;;;;;;20.08;10.02;;;;;;;-3.37;78.04;100149.97;5015989;28;20055;-71
2021/01/17 08:14:34;;;;;;;21.08;9.98;;;;;;;-3.24;78.09;100156.84;5016753;28;20030;-67
2021/01/17 08:17:04;;;;;;;17.75;8.27;;;;;;;-3.37;77.43;100155.19;4987105;28;20034;-68
2021/01/17 08:19:52;;;;;;;19.85;10.35;;;;;;;-3.27;77.09;100162.09;5015862;28;20045;-72
2021/01/17 08:22:18;;;;;;;23.17;11.15;;;;;;;-3.30;77.70;100162.09;5005097;28;20082;-70
2021/01/17 08:24:51;;;;;;;21.02;9.85;;;;;;;-3.36;77.81;100142.16;5015733;28;20073;-69
2021/01/17 08:27:32;;;;;;;27.02;11.68;;;;;;;-3.29;77.51;100159.47;5015343;28;20030;-70
2021/01/17 08:30:00;;;;;;;23.13;10.85;;;;;;;-3.21;77.08;100177.69;5015603;28;20034;-68
2021/01/17 08:32:37;;;;;;;21.38;10.25;;;;;;;-3.08;77.12;100171.56;5015577;28;20099;-69
2021/01/17 08:35:18;;;;;;;18.40;8.65;;;;;;;-3.12;76.01;100172.44;5015314;28;20046;-70
2021/01/17 08:37:51;;;;;;;23.02;11.02;;;;;;;-3.10;76.80;100178.50;5015612;28;20034;-71
2021/01/17 08:40:29;;;;;;;21.77;10.07;;;;;;;-3.09;76.73;100182.84;4997659;28;20041;-67
2021/01/17 08:43:08;;;;;;;20.35;10.15;;;;;;;-3.08;76.37;100196.78;5015596;28;20033;-72
2021/01/17 08:45:45;;;;;;;20.25;9.50;;;;;;;-3.11;76.13;100181.13;4999247;28;20112;-70
2021/01/17 08:48:17;;;;;;;20.33;10.18;;;;;;;-3.04;76.10;100195.88;5014894;28;20033;-69
2021/01/17 08:50:44;;;;;;;16.48;8.20;;;;;;;-3.20;75.36;100162.03;5015346;28;20040;-70
2021/01/17 08:53:10;;;;;;;14.45;5.80;;;;;;;-3.01;75.70;100201.94;5014848;28;20359;-75
2021/01/17 08:55:36;;;;;;;22.42;10.48;;;;;;;-2.89;75.71;100206.22;4997723;28;20038;-70
2021/01/17 08:58:02;;;;;;;20.13;10.38;;;;;;;-3.01;75.45;100204.53;5014815;28;20030;-73
2021/01/17 09:00:49;;;;;;;19.45;8.90;;;;;;;-2.82;75.35;100217.47;4996985;28;20041;-72
2021/01/17 09:03:33;;;;;;;17.13;8.35;;;;;;;-2.90;74.78;100213.16;5014529;28;20053;-72
2021/01/17 09:06:05;;;;;;;18.63;8.85;;;;;;;-2.84;75.41;100214.03;5014784;28;20037;-74
2021/01/17 09:08:33;;;;;;;20.20;10.53;;;;;;;-2.75;74.60;100209.59;5014154;28;20033;-70
2021/01/17 09:11:00;;;;;;;23.63;10.85;;;;;;;-2.57;74.62;100207.75;5011628;28;20776;-72
2021/01/17 09:13:28;;;;;;;22.05;10.07;;;;;;;-2.49;73.16;100222.47;4997111;28;20041;-73
2021/01/17 09:15:58;;;;;;;20.20;9.60;;;;;;;-2.63;73.43;100219.09;5014672;28;20029;-71
2021/01/17 09:18:24;;;;;;;23.25;10.82;;;;;;;-2.78;75.31;100227.91;5014662;28;20034;-73
2021/01/17 09:20:55;;;;;;;19.98;9.60;;;;;;;-2.89;73.67;100207.09;4980990;28;20081;-71
2021/01/17 09:23:22;;;;;;;17.38;8.93;;;;;;;-3.00;74.32;100182.78;4980388;28;20184;-69
2021/01/17 09:25:54;;;;;;;20.83;10.13;;;;;;;-3.15;73.74;100166.38;5014205;28;20025;-72
2021/01/17 09:28:19;;;;;;;19.38;9.25;;;;;;;-2.74;74.04;100241.78;5014498;28;20034;-69
2021/01/17 09:30:52;;;;;;;20.85;9.55;;;;;;;-3.03;73.68;100161.94;5014759;28;20789;-72
2021/01/17 09:33:19;;;;;;;20.65;9.85;;;;;;;-2.57;73.41;100223.41;5017632;28;20097;-70
2021/01/17 09:35:46;;;;;;;22.35;10.10;;;;;;;-2.46;73.64;100221.59;5012678;28;20406;-72
2021/01/17 09:38:16;;;;;;;23.23;10.35;;;;;;;-2.34;72.95;100224.94;5014368;28;20061;-70
2021/01/17 09:40:44;;;;;;;21.52;9.75;;;;;;;-2.39;71.73;100223.28;5009122;28;20029;-72
2021/01/17 09:43:10;;;;;;;21.65;10.20;;;;;;;-2.47;72.47;100210.28;4996401;28;20026;-72
2021/01/17 09:45:36;;;;;;;23.35;11.35;;;;;;;-2.25;71.56;100224.00;5014439;28;20044;-73
2021/01/17 09:48:02;;;;;;;21.63;10.40;;;;;;;-2.35;72.19;100204.94;4996705;28;20141;-71
2021/01/17 09:50:35;;;;;;;20.08;9.63;;;;;;;-2.41;72.18;100225.91;5014036;28;20041;-73
2021/01/17 09:53:05;;;;;;;18.13;9.07;;;;;;;-2.29;71.01;100211.00;5013672;28;20044;-72
2021/01/17 09:55:32;;;;;;;21.58;10.18;;;;;;;-2.25;71.83;100215.31;4996641;28;20034;-74
2021/01/17 09:58:00;;;;;;;21.67;8.45;;;;;;;-2.36;70.96;100218.00;5014388;28;20498;-72
2021/01/17 10:00:26;;;;;;;20.65;9.30;;;;;;;-2.22;70.67;100220.50;5013968;28;20088;-71
2021/01/17 10:02:54;;;;;;;18.65;9.75;;;;;;;-2.24;69.92;100225.75;4996177;28;20079;-73
2021/01/17 10:05:29;;;;;;;21.92;10.18;;;;;;;-2.43;70.06;100198.03;5013683;28;20132;-73
2021/01/17 10:08:08;;;;;;;20.15;10.70;;;;;;;-2.29;70.18;100218.84;4996163;28;20048;-73
2021/01/17 10:10:35;;;;;;;20.58;9.85;;;;;;;-2.31;69.99;100227.56;4978560;28;20048;-72
2021/01/17 10:13:01;;;;;;;17.75;9.65;;;;;;;-2.48;69.38;100202.44;4977053;28;20088;-72
2021/01/17 10:15:27;;;;;;;17.58;9.55;;;;;;;-2.42;69.80;100229.38;4993952;28;20117;-69
2021/01/17 10:17:53;;;;;;;18.23;7.88;;;;;;;-2.38;70.36;100231.09;4976632;28;20070;-69
2021/01/17 10:20:30;;;;;;;15.70;7.03;;;;;;;-2.51;70.56;100223.34;4975595;28;20049;-74
2021/01/17 10:22:58;;;;;;;17.80;9.93;;;;;;;-2.47;71.08;100225.06;5002688;28;20545;-71
2021/01/17 10:25:24;;;;;;;21.38;10.15;;;;;;;-2.66;71.02;100183.44;5011704;28;20501;-69
2021/01/17 10:27:57;;;;;;;20.05;9.00;;;;;;;-2.60;70.95;100193.84;5013662;28;20113;-69
2021/01/17 10:30:26;;;;;;;17.25;7.97;;;;;;;-2.36;70.64;100229.31;5013546;28;20471;-69
2021/01/17 10:33:01;;;;;;;20.23;10.02;;;;;;;-2.29;69.38;100229.28;5013067;28;20046;-68
2021/01/17 10:35:30;;;;;;;21.00;9.98;;;;;;;-2.18;68.06;100240.50;5013376;28;20065;-70
2021/01/17 10:37:56;;;;;;;21.13;9.70;;;;;;;-2.12;69.15;100215.19;5013418;28;20034;-71
2021/01/17 10:40:26;;;;;;;22.70;9.88;;;;;;;-2.36;68.21;100174.47;4979134;28;20092;-73
2021/01/17 10:42:53;;;;;;;20.67;10.48;;;;;;;-1.96;68.07;100197.59;5012950;28;20033;-70
2021/01/17 10:45:20;;;;;;;19.45;9.90;;;;;;;-1.94;68.11;100174.91;4979042;28;20379;-74
2021/01/17 10:47:53;;;;;;;21.30;9.35;;;;;;;-1.69;68.58;100227.81;4995644;28;20048;-70
2021/01/17 10:50:21;;;;;;;23.15;11.13;;;;;;;-1.66;67.52;100229.53;5013147;28;20383;-71
2021/01/17 10:52:58;;;;;;;19.95;10.73;;;;;;;-1.77;67.03;100230.53;4995478;28;20550;-71
2021/01/17 10:55:30;;;;;;;20.63;10.05;;;;;;;-1.78;67.50;100225.31;4995455;28;20038;-71
2021/01/17 10:57:57;;;;;;;21.08;10.18;;;;;;;-1.84;67.16;100199.22;4995858;28;20048;-70
2021/01/17 11:00:23;;;;;;;21.85;10.10;;;;;;;-1.59;66.93;100228.59;4979319;28;20104;-73
2021/01/17 11:03:08;;;;;;;20.65;9.95;;;;;;;-1.63;66.23;100211.22;4995622;28;20137;-77
2021/01/17 11:05:34;;;;;;;20.55;10.50;;;;;;;-1.61;66.10;100219.91;4996210;28;20558;-75
2021/01/17 11:08:00;;;;;;;22.02;10.32;;;;;;;-1.63;68.33;100222.53;4994809;28;20041;-73
2021/01/17 11:10:27;;;;;;;15.57;6.80;;;;;;;-1.67;67.50;100225.19;4977168;28;20035;-71
2021/01/17 11:12:53;;;;;;;18.65;9.13;;;;;;;-1.75;64.41;100220.03;4959587;28;20034;-72
2021/01/17 11:15:21;;;;;;;18.38;8.80;;;;;;;-1.64;66.89;100225.16;4993294;28;20073;-72
2021/01/17 11:17:55;;;;;;;21.50;10.93;;;;;;;-1.56;67.31;100220.69;4975573;28;20034;-70
2021/01/17 11:20:29;;;;;;;21.40;9.30;;;;;;;-1.29;65.38;100215.16;4991135;28;20030;-71
2021/01/17 11:23:05;;;;;;;17.58;9.05;;;;;;;-1.55;65.85;100162.25;4994008;28;20117;-70
2021/01/17 11:25:32;;;;;;;19.15;8.50;;;;;;;-1.13;65.58;100233.28;4979719;28;20019;-72
2021/01/17 11:28:00;;;;;;;17.75;9.35;;;;;;;-1.25;64.50;100209.00;4979526;28;20058;-73